Hurdland, MO (63547)

10:22 PM CST en Marzo 06, 2015 (GMT -0600)
Kirksville Regional | Change Station
CLOSE
Current Station
Aeropuerto
Location: Kirksville,
Altura: 965 ft
Estaciones meteorológicas cercanas

Alt 965 ft 40.10 °N, 92.55 °W | Updated 27 minutes ago

Despejado
Despejado
42 ° F
Sensación térmica 36 ° F
N
12
Viento Variable Viento desde SSO

Hoy
Alta -- | Baja -- ° F
--% Posibilidad de precipitaciones
Ayer
Alta -- | Baja -- ° F
Precip. -- pul
6:35 AM 6:06 PM
Luna llena, 98% visible
Presión 30.22 pul
Visibilidad 10.0 Millas
Nubes Despejado
Vientos helados 36 ° F
Punto de rocío 31 ° F
Humedad 65%
Precipitaciones 0.00 pul
Espesor de la nieve No disponible.
UV 0 de una escala de 12
Polen 2.10 de una escala de 12
Calidad del aire No disponible.
Flu Activity No disponible.
METAR KIRK 070355Z AUTO 21010KT 10SM CLR 06/M01 A3019 RMK AO2 SLP233 T00561006 TSNO

More Conditions Fewer Conditions

Presión 30.22 pul
Visibilidad 10.0 Millas
Nubes Despejado
Vientos helados 36 ° F
Punto de rocío 31 ° F
Humedad 65%
Precipitaciones 0.00 pul
Espesor de la nieve No disponible.
UV 0 de una escala de 12
Polen 2.10 de una escala de 12
Calidad del aire No disponible.
Flu Activity No disponible.
METAR KIRK 070355Z AUTO 21010KT 10SM CLR 06/M01 A3019 RMK AO2 SLP233 T00561006 TSNO

More Conditions Fewer Conditions

10-Day Weather Forecast

Almanac

Astronomía

Mar. 06, 2015 Salida Puesta
Hora real
Crepúsculo civil
Crepúsculo náutico
Crepúsculo astronómico
Luna
Horas de luz
Horas de luz
Tomorrow will be .
, % of the Moon is Illuminated

Extremos de hoy

Máximos del estado Bajos del estado

Community

WunderPhotos

Upload Photos

1,803,537 ¡fotos cargadas!

WunderBlogs® & News

Nearby

Calidad del aire

  Calidad del aire Índice AQ Contaminante
Not available.

Grosos de nieve

Estación Profundido Altura

Actividad de terremotos

Ciudad Distance Mag. Tiempo y dato
Magnitud mínima muestra es 2,5.

Temperaturas de aguas costeras

Lugar Temperatura

Estaciones meteorológicas cercanas